createdAt,value
2022-11-21T04:22:10.488Z,97775.19
2022-11-21T04:25:20.119Z,97778.75
2022-11-21T04:28:29.741Z,97771.63
2022-11-21T04:31:39.353Z,97777.38
2022-11-21T04:34:49.034Z,97780.06
2022-11-21T04:37:59.909Z,97794.56
2022-11-21T04:41:09.568Z,97786.38
2022-11-21T04:44:19.217Z,97800.69
2022-11-21T04:47:28.906Z,97797.69
2022-11-21T04:50:38.579Z,97786.91
2022-11-21T04:53:49.620Z,97786.34
2022-11-21T04:56:59.277Z,97789.66
2022-11-21T05:00:10.046Z,97786.22
2022-11-21T05:03:19.646Z,97784.69
2022-11-21T05:06:29.245Z,97776.25
2022-11-21T05:09:40.255Z,97785.69
2022-11-21T05:13:07.852Z,97787.22
2022-11-21T05:16:17.449Z,97783.91
2022-11-21T05:19:27.047Z,97787.34
2022-11-21T05:22:36.755Z,97784.91
2022-11-21T05:25:47.722Z,97780.47
2022-11-21T05:28:57.338Z,97771.16
2022-11-21T05:32:07.074Z,97773.16
2022-11-21T05:35:16.727Z,97769.16
2022-11-21T05:38:26.396Z,97772.25
2022-11-21T05:41:37.392Z,97772.72
2022-11-21T05:44:47.052Z,97779.59
2022-11-21T05:47:56.794Z,97771.41
2022-11-21T05:51:06.523Z,97771.63
2022-11-21T05:54:16.779Z,97773.59
2022-11-21T05:57:27.790Z,97771.72
2022-11-21T06:00:37.860Z,97778.22
2022-11-21T07:43:11.732Z,97803.75
2022-11-21T07:46:21.397Z,97791.63
2022-11-21T07:49:31.270Z,97805.91
2022-11-21T07:52:40.989Z,97794.00
2022-11-21T07:55:50.589Z,97796.81
2022-11-21T07:59:01.589Z,97795.25
2022-11-21T08:02:18.072Z,97796.72
2022-11-21T08:05:27.732Z,97788.84
2022-11-21T08:08:37.444Z,97786.88
2022-11-21T08:11:47.042Z,97792.88
2022-11-21T08:14:59.034Z,97793.88
2022-11-21T08:18:09.991Z,97790.84
2022-11-21T08:21:20.168Z,97802.22
2022-11-21T08:24:29.891Z,97795.66
2022-11-21T08:31:18.965Z,97784.03
2022-11-21T08:34:31.526Z,97790.09
2022-11-21T08:37:41.260Z,97782.25
2022-11-21T08:41:17.285Z,97795.34
2022-11-21T08:44:29.067Z,97777.28
2022-11-21T08:47:40.269Z,97766.56
2022-11-21T08:50:49.982Z,97767.72
2022-11-21T08:54:00.080Z,97766.53
2022-11-21T08:57:09.753Z,97785.25
2022-11-21T09:00:20.048Z,97791.16
2022-11-21T09:03:32.791Z,97784.38
2022-11-21T09:06:42.434Z,97781.72
2022-11-21T09:09:52.176Z,97771.81
2022-11-21T09:13:02.420Z,97773.28
2022-11-21T09:16:23.639Z,97748.75
2022-11-21T09:19:34.573Z,97762.63
2022-11-21T09:22:44.230Z,97754.84
2022-11-21T09:25:54.282Z,97743.91
2022-11-21T09:29:04.451Z,97731.13
2022-11-21T09:32:14.236Z,97728.69
2022-11-21T09:35:25.266Z,97718.63
2022-11-21T09:38:34.904Z,97714.97
2022-11-21T09:41:56.825Z,97721.22
2022-11-21T09:45:11.803Z,97730.94
2022-11-21T09:48:28.870Z,97729.31
2022-11-21T09:51:42.658Z,97719.44
2022-11-21T09:54:59.182Z,97714.69
2022-11-21T09:58:17.084Z,97712.38
2022-11-21T10:01:28.555Z,97704.94
2022-11-21T10:04:38.259Z,97699.59
2022-11-21T10:07:51.710Z,97687.97
2022-11-21T10:11:19.192Z,97701.78
2022-11-21T10:14:43.959Z,97695.06
2022-11-21T10:18:07.004Z,97694.66
2022-11-21T10:21:33.825Z,97692.81
2022-11-21T10:24:55.367Z,97680.06
2022-11-21T10:28:11.694Z,97678.03
2022-11-21T10:31:22.921Z,97666.19
2022-11-21T10:34:38.713Z,97658.78
2022-11-21T10:37:53.262Z,97649.59
2022-11-21T10:41:08.772Z,97644.47
2022-11-21T10:44:37.632Z,97635.75
2022-11-21T10:47:49.332Z,97627.94
2022-11-21T10:51:15.167Z,97615.53
2022-11-21T10:54:33.834Z,97622.59
2022-11-21T10:57:48.202Z,97611.25
2022-11-21T11:00:59.032Z,97608.97
2022-11-21T11:04:43.848Z,97607.22
2022-11-21T11:08:02.389Z,97602.97
2022-11-21T11:11:16.193Z,97597.84
2022-11-21T11:14:33.291Z,97578.75
2022-11-21T11:17:43.055Z,97582.47
2022-11-21T11:20:53.398Z,97577.28
2022-11-21T11:24:22.854Z,97559.00
2022-11-21T11:27:32.499Z,97546.16
2022-11-21T11:30:44.320Z,97543.09
2022-11-21T11:33:56.623Z,97543.03
2022-11-21T11:37:14.490Z,97529.03
2022-11-21T11:40:29.850Z,97522.91
2022-11-21T11:44:01.352Z,97518.56
2022-11-21T11:47:31.792Z,97521.28
2022-11-21T11:50:47.199Z,97513.91
2022-11-21T11:54:03.522Z,97504.53
2022-11-21T11:57:14.838Z,97506.38
2022-11-21T12:00:31.590Z,97510.84
2022-11-21T12:03:56.583Z,97514.25
2022-11-21T12:08:33.234Z,97508.78
2022-11-21T12:11:06.169Z,97497.63
2022-11-21T12:14:37.819Z,97492.03
2022-11-21T12:17:55.882Z,97496.81
2022-11-21T12:21:13.479Z,97495.44
2022-11-21T12:24:23.425Z,97484.63
2022-11-21T12:27:33.560Z,97477.56
2022-11-21T12:30:51.997Z,97464.03
2022-11-21T12:34:10.640Z,97445.91
2022-11-21T12:37:34.017Z,97438.38
2022-11-21T12:40:51.385Z,97433.69
2022-11-21T12:44:11.464Z,97430.44
2022-11-21T12:48:00.005Z,97419.50
2022-11-21T12:51:41.772Z,97417.94
2022-11-21T12:55:15.157Z,97417.88
2022-11-21T12:58:33.109Z,97404.44
2022-11-21T13:01:52.798Z,97399.66
2022-11-21T13:05:05.674Z,97389.91
2022-11-21T13:08:24.200Z,97390.22
2022-11-21T13:11:57.256Z,97384.72
2022-11-21T13:15:19.448Z,97390.72
2022-11-21T13:18:34.533Z,97384.00
2022-11-21T13:21:47.729Z,97378.50
2022-11-21T13:24:59.444Z,97375.06
2022-11-21T13:28:34.395Z,97369.63
2022-11-21T13:31:44.559Z,97361.84
2022-11-21T13:34:54.374Z,97354.44
2022-11-21T13:38:05.736Z,97347.75
2022-11-21T13:42:05.972Z,97341.53
2022-11-21T13:45:40.368Z,97336.56
2022-11-21T13:49:01.838Z,97324.34
2022-11-21T13:52:26.918Z,97314.13
2022-11-21T13:55:49.725Z,97309.25
2022-11-21T13:59:12.208Z,97307.97
2022-11-21T14:02:44.909Z,97296.34
2022-11-21T14:06:19.747Z,97306.94
2022-11-21T14:09:36.290Z,97293.44
2022-11-21T14:12:50.628Z,97290.06
2022-11-21T14:16:16.173Z,97279.13
2022-11-21T14:19:29.949Z,97280.72
2022-11-21T14:22:45.630Z,97284.25
2022-11-21T14:25:57.996Z,97277.78
2022-11-21T14:29:18.882Z,97273.47
2022-11-21T14:32:28.995Z,97276.28
2022-11-21T14:35:41.043Z,97266.16
2022-11-21T14:39:13.753Z,97253.72
2022-11-21T14:42:22.874Z,97250.34
2022-11-21T14:45:32.736Z,97241.97
2022-11-21T14:48:42.604Z,97236.88
2022-11-21T14:51:59.502Z,97235.66
2022-11-21T14:55:32.468Z,97225.63
2022-11-21T14:58:42.307Z,97204.63
2022-11-21T15:01:58.760Z,97192.28
2022-11-21T15:05:24.913Z,97179.56
2022-11-21T15:09:29.041Z,97177.03
2022-11-21T15:12:20.595Z,97162.13
2022-11-21T15:15:34.370Z,97157.50
2022-11-21T15:18:44.255Z,97148.53
2022-11-21T15:21:57.103Z,97121.34
2022-11-21T15:25:15.575Z,97118.19
2022-11-21T15:28:25.505Z,97106.53
2022-11-21T15:31:35.196Z,97091.34
2022-11-21T15:34:45.029Z,97096.72
2022-11-21T15:37:54.718Z,97086.72
2022-11-21T15:41:25.565Z,97089.50
2022-11-21T15:44:35.259Z,97079.63
2022-11-21T15:47:44.880Z,97082.59
2022-11-21T15:50:58.783Z,97077.78
2022-11-21T15:54:12.138Z,97084.97
2022-11-21T15:57:23.367Z,97067.34
2022-11-21T16:00:32.992Z,97055.00
2022-11-21T16:03:43.347Z,97049.34
2022-11-21T16:06:52.976Z,97043.66
2022-11-21T16:10:02.600Z,97033.66
2022-11-21T16:13:13.856Z,97034.75
2022-11-21T16:16:25.753Z,97034.16
2022-11-21T16:19:35.594Z,97031.31
2022-11-21T16:22:47.658Z,97030.03
2022-11-21T16:25:57.707Z,97023.88
2022-11-21T16:29:11.507Z,97015.06
2022-11-21T16:32:21.147Z,97002.97
2022-11-21T16:35:31.950Z,96989.44
2022-11-21T16:38:44.458Z,96994.25
2022-11-21T16:41:54.097Z,96986.31
2022-11-21T16:45:05.529Z,96990.72
2022-11-21T16:48:15.378Z,96978.47
2022-11-21T16:51:25.093Z,96967.19
2022-11-21T16:54:34.813Z,96957.03
2022-11-21T16:57:44.422Z,96946.06
2022-11-21T17:00:59.203Z,96949.00
2022-11-21T17:04:15.671Z,96945.69
2022-11-21T17:07:27.348Z,96940.78
2022-11-21T17:10:39.028Z,96943.31
2022-11-21T17:13:51.971Z,96946.16
2022-11-21T17:17:04.243Z,96953.72
2022-11-21T17:20:15.387Z,96949.31
2022-11-21T17:23:26.940Z,96938.22
2022-11-21T17:26:39.315Z,96929.41
2022-11-21T17:29:50.820Z,96944.69
2022-11-21T17:33:03.803Z,96966.22
2022-11-21T17:36:16.587Z,96968.38
2022-11-21T17:39:30.112Z,96957.38
2022-11-21T17:42:44.081Z,96945.88
2022-11-21T17:46:02.696Z,96929.97
2022-11-21T17:49:18.173Z,96943.53
2022-11-21T17:52:29.356Z,96938.81
2022-11-21T17:55:40.786Z,96943.44
2022-11-21T17:58:53.013Z,96930.97
2022-11-21T18:02:04.521Z,96932.94
2022-11-21T18:05:17.199Z,96927.53
2022-11-21T18:08:28.367Z,96917.59
2022-11-21T18:11:40.834Z,96905.13
2022-11-21T18:14:52.676Z,96911.88
2022-11-21T18:18:04.344Z,96908.38
2022-11-21T18:21:19.144Z,96894.94
2022-11-21T18:24:30.292Z,96903.06
2022-11-21T18:27:42.046Z,96922.91
2022-11-21T18:30:53.402Z,96920.00
2022-11-21T18:34:06.156Z,96925.81
2022-11-21T18:37:18.846Z,96917.75
2022-11-21T18:40:30.142Z,96910.75
2022-11-21T18:43:42.536Z,96911.03
2022-11-21T18:46:53.816Z,96913.09
2022-11-21T18:50:05.223Z,96911.41
2022-11-21T18:53:18.139Z,96895.84
2022-11-21T18:56:29.762Z,96895.03
2022-11-21T18:59:40.929Z,96884.25
2022-11-21T19:02:52.569Z,96876.78
2022-11-21T19:06:03.935Z,96868.97
2022-11-21T19:09:16.650Z,96861.31
2022-11-21T19:12:27.819Z,96857.78
2022-11-21T19:15:39.678Z,96854.25
2022-11-21T19:19:18.756Z,96852.53
2022-11-21T19:22:26.884Z,96849.16
2022-11-21T19:25:39.577Z,96855.34
2022-11-21T19:28:50.931Z,96858.88
2022-11-21T19:32:02.082Z,96868.19
2022-11-21T19:35:13.381Z,96862.28
2022-11-21T19:38:24.980Z,96851.50
2022-11-21T19:41:37.764Z,96845.81
2022-11-21T19:44:48.866Z,96838.94
2022-11-21T19:48:01.189Z,96832.34
2022-11-21T19:51:12.623Z,96824.00
2022-11-21T19:54:24.382Z,96817.75
2022-11-21T19:57:39.654Z,96828.13
2022-11-21T20:00:50.973Z,96822.84
2022-11-21T20:04:04.707Z,96816.16
2022-11-21T20:07:15.955Z,96807.91
2022-11-21T20:10:27.693Z,96798.56
2022-11-21T20:13:41.281Z,96789.34
2022-11-21T20:16:54.224Z,96787.72
2022-11-21T20:20:05.874Z,96785.06
2022-11-21T20:23:17.093Z,96777.25
2022-11-21T20:26:28.409Z,96761.69
2022-11-21T20:29:41.157Z,96762.44
2022-11-21T20:32:52.556Z,96763.31
2022-11-21T20:36:06.428Z,96763.25
2022-11-21T20:39:19.096Z,96757.09
2022-11-21T20:42:30.340Z,96748.56
2022-11-21T20:49:14.543Z,96751.72
